sensor_id;sensor_type;location;lat;lon;timestamp;temperature;humidity
67354;SHT30;54238;52.278;21.056;2023-11-21T00:00:14;1.69;80.66
67354;SHT30;54238;52.278;21.056;2023-11-21T00:03:05;1.68;80.48
67354;SHT30;54238;52.278;21.056;2023-11-21T00:05:37;1.68;80.50
67354;SHT30;54238;52.278;21.056;2023-11-21T00:08:04;1.67;80.47
67354;SHT30;54238;52.278;21.056;2023-11-21T00:10:31;1.65;80.43
67354;SHT30;54238;52.278;21.056;2023-11-21T00:13:01;1.66;80.54
67354;SHT30;54238;52.278;21.056;2023-11-21T00:15:31;1.68;80.44
67354;SHT30;54238;52.278;21.056;2023-11-21T00:18:03;1.68;80.31
67354;SHT30;54238;52.278;21.056;2023-11-21T00:20:30;1.68;80.40
67354;SHT30;54238;52.278;21.056;2023-11-21T00:23:00;1.68;80.31
67354;SHT30;54238;52.278;21.056;2023-11-21T00:25:32;1.66;80.11
67354;SHT30;54238;52.278;21.056;2023-11-21T00:28:01;1.65;80.16
67354;SHT30;54238;52.278;21.056;2023-11-21T00:30:33;1.64;80.11
67354;SHT30;54238;52.278;21.056;2023-11-21T00:33:03;1.64;80.15
67354;SHT30;54238;52.278;21.056;2023-11-21T00:35:32;1.59;79.90
67354;SHT30;54238;52.278;21.056;2023-11-21T00:38:03;1.55;79.91
67354;SHT30;54238;52.278;21.056;2023-11-21T00:40:30;1.52;79.97
67354;SHT30;54238;52.278;21.056;2023-11-21T00:43:00;1.51;80.14
67354;SHT30;54238;52.278;21.056;2023-11-21T00:45:27;1.50;79.98
67354;SHT30;54238;52.278;21.056;2023-11-21T00:47:56;1.48;80.07
67354;SHT30;54238;52.278;21.056;2023-11-21T00:50:24;1.48;80.06
67354;SHT30;54238;52.278;21.056;2023-11-21T00:52:51;1.43;79.89
67354;SHT30;54238;52.278;21.056;2023-11-21T00:55:21;1.40;80.06
67354;SHT30;54238;52.278;21.056;2023-11-21T00:57:56;1.40;80.06
67354;SHT30;54238;52.278;21.056;2023-11-21T01:00:26;1.39;80.08
67354;SHT30;54238;52.278;21.056;2023-11-21T01:02:53;1.40;80.13
67354;SHT30;54238;52.278;21.056;2023-11-21T01:05:20;1.41;80.21
67354;SHT30;54238;52.278;21.056;2023-11-21T01:07:49;1.42;80.20
67354;SHT30;54238;52.278;21.056;2023-11-21T01:10:16;1.43;80.10
67354;SHT30;54238;52.278;21.056;2023-11-21T01:12:47;1.43;80.03
67354;SHT30;54238;52.278;21.056;2023-11-21T01:15:18;1.42;79.90
67354;SHT30;54238;52.278;21.056;2023-11-21T01:17:50;1.41;79.89
67354;SHT30;54238;52.278;21.056;2023-11-21T01:20:18;1.40;79.82
67354;SHT30;54238;52.278;21.056;2023-11-21T01:22:48;1.39;79.87
67354;SHT30;54238;52.278;21.056;2023-11-21T01:25:17;1.41;79.79
67354;SHT30;54238;52.278;21.056;2023-11-21T01:27:44;1.39;79.67
67354;SHT30;54238;52.278;21.056;2023-11-21T01:30:12;1.38;79.60
67354;SHT30;54238;52.278;21.056;2023-11-21T01:32:45;1.37;79.56
67354;SHT30;54238;52.278;21.056;2023-11-21T01:35:12;1.35;79.60
67354;SHT30;54238;52.278;21.056;2023-11-21T01:37:40;1.34;79.55
67354;SHT30;54238;52.278;21.056;2023-11-21T01:40:07;1.31;79.47
67354;SHT30;54238;52.278;21.056;2023-11-21T01:42:40;1.29;79.45
67354;SHT30;54238;52.278;21.056;2023-11-21T01:45:10;1.24;79.40
67354;SHT30;54238;52.278;21.056;2023-11-21T01:47:41;1.22;79.64
67354;SHT30;54238;52.278;21.056;2023-11-21T01:50:16;1.24;79.81
67354;SHT30;54238;52.278;21.056;2023-11-21T01:52:45;1.24;79.68
67354;SHT30;54238;52.278;21.056;2023-11-21T01:55:14;1.25;79.71
67354;SHT30;54238;52.278;21.056;2023-11-21T01:57:46;1.28;79.82
67354;SHT30;54238;52.278;21.056;2023-11-21T02:00:14;1.26;79.60
67354;SHT30;54238;52.278;21.056;2023-11-21T02:02:42;1.26;79.67
67354;SHT30;54238;52.278;21.056;2023-11-21T02:05:17;1.27;79.72
67354;SHT30;54238;52.278;21.056;2023-11-21T02:07:45;1.26;79.63
67354;SHT30;54238;52.278;21.056;2023-11-21T02:10:15;1.29;79.69
67354;SHT30;54238;52.278;21.056;2023-11-21T02:12:51;1.28;79.42
67354;SHT30;54238;52.278;21.056;2023-11-21T02:15:21;1.23;79.20
67354;SHT30;54238;52.278;21.056;2023-11-21T02:17:55;1.20;79.23
67354;SHT30;54238;52.278;21.056;2023-11-21T02:20:27;1.20;79.35
67354;SHT30;54238;52.278;21.056;2023-11-21T02:22:56;1.21;79.35
67354;SHT30;54238;52.278;21.056;2023-11-21T02:25:31;1.21;79.33
67354;SHT30;54238;52.278;21.056;2023-11-21T02:28:01;1.19;79.32
67354;SHT30;54238;52.278;21.056;2023-11-21T02:30:29;1.21;79.57
67354;SHT30;54238;52.278;21.056;2023-11-21T02:33:06;1.23;79.44
67354;SHT30;54238;52.278;21.056;2023-11-21T02:35:35;1.21;79.34
67354;SHT30;54238;52.278;21.056;2023-11-21T02:38:05;1.19;79.32
67354;SHT30;54238;52.278;21.056;2023-11-21T02:40:34;1.17;79.44
67354;SHT30;54238;52.278;21.056;2023-11-21T02:43:03;1.14;79.33
67354;SHT30;54238;52.278;21.056;2023-11-21T02:45:33;1.12;79.49
67354;SHT30;54238;52.278;21.056;2023-11-21T02:47:59;1.09;79.52
67354;SHT30;54238;52.278;21.056;2023-11-21T02:50:27;1.05;79.49
67354;SHT30;54238;52.278;21.056;2023-11-21T02:52:56;1.06;79.73
67354;SHT30;54238;52.278;21.056;2023-11-21T02:55:29;1.08;79.86
67354;SHT30;54238;52.278;21.056;2023-11-21T02:57:56;1.12;79.92
67354;SHT30;54238;52.278;21.056;2023-11-21T03:00:23;1.15;79.95
67354;SHT30;54238;52.278;21.056;2023-11-21T03:02:52;1.13;79.87
67354;SHT30;54238;52.278;21.056;2023-11-21T03:05:25;1.13;79.96
67354;SHT30;54238;52.278;21.056;2023-11-21T03:07:55;1.15;79.92
67354;SHT30;54238;52.278;21.056;2023-11-21T03:10:22;1.15;80.00
67354;SHT30;54238;52.278;21.056;2023-11-21T03:12:52;1.16;79.91
67354;SHT30;54238;52.278;21.056;2023-11-21T03:15:24;1.15;79.98
67354;SHT30;54238;52.278;21.056;2023-11-21T03:17:51;1.16;80.01
67354;SHT30;54238;52.278;21.056;2023-11-21T03:20:21;1.19;80.18
67354;SHT30;54238;52.278;21.056;2023-11-21T03:22:47;1.22;80.17
67354;SHT30;54238;52.278;21.056;2023-11-21T03:25:18;1.18;79.87
67354;SHT30;54238;52.278;21.056;2023-11-21T03:27:45;1.15;79.84
67354;SHT30;54238;52.278;21.056;2023-11-21T03:30:14;1.13;79.93
67354;SHT30;54238;52.278;21.056;2023-11-21T03:32:42;1.08;79.72
67354;SHT30;54238;52.278;21.056;2023-11-21T03:35:11;1.04;79.82
67354;SHT30;54238;52.278;21.056;2023-11-21T03:37:41;1.03;79.94
67354;SHT30;54238;52.278;21.056;2023-11-21T03:40:08;1.01;79.93
67354;SHT30;54238;52.278;21.056;2023-11-21T03:42:42;1.00;80.02
67354;SHT30;54238;52.278;21.056;2023-11-21T03:45:11;0.99;80.10
67354;SHT30;54238;52.278;21.056;2023-11-21T03:47:39;0.96;80.10
67354;SHT30;54238;52.278;21.056;2023-11-21T03:50:09;0.91;80.17
67354;SHT30;54238;52.278;21.056;2023-11-21T03:52:38;0.87;80.29
67354;SHT30;54238;52.278;21.056;2023-11-21T03:55:05;0.86;80.48
67354;SHT30;54238;52.278;21.056;2023-11-21T03:57:33;0.88;80.66
67354;SHT30;54238;52.278;21.056;2023-11-21T04:00:11;0.86;80.55
67354;SHT30;54238;52.278;21.056;2023-11-21T04:02:43;0.83;80.46
67354;SHT30;54238;52.278;21.056;2023-11-21T04:05:10;0.81;80.63
67354;SHT30;54238;52.278;21.056;2023-11-21T04:07:41;0.82;80.77
67354;SHT30;54238;52.278;21.056;2023-11-21T04:10:13;0.82;80.79
67354;SHT30;54238;52.278;21.056;2023-11-21T04:12:40;0.80;80.78
67354;SHT30;54238;52.278;21.056;2023-11-21T04:15:10;0.80;80.86
67354;SHT30;54238;52.278;21.056;2023-11-21T04:17:43;0.77;80.78
67354;SHT30;54238;52.278;21.056;2023-11-21T04:20:10;0.74;80.72
67354;SHT30;54238;52.278;21.056;2023-11-21T04:22:38;0.71;80.73
67354;SHT30;54238;52.278;21.056;2023-11-21T04:25:08;0.68;80.96
67354;SHT30;54238;52.278;21.056;2023-11-21T04:27:43;0.68;81.05
67354;SHT30;54238;52.278;21.056;2023-11-21T04:30:12;0.70;81.13
67354;SHT30;54238;52.278;21.056;2023-11-21T04:32:43;0.73;81.17
67354;SHT30;54238;52.278;21.056;2023-11-21T04:35:15;0.76;81.38
67354;SHT30;54238;52.278;21.056;2023-11-21T04:37:44;0.77;81.21
67354;SHT30;54238;52.278;21.056;2023-11-21T04:40:14;0.77;81.24
67354;SHT30;54238;52.278;21.056;2023-11-21T04:42:41;0.79;81.30
67354;SHT30;54238;52.278;21.056;2023-11-21T04:45:08;0.78;81.18
67354;SHT30;54238;52.278;21.056;2023-11-21T04:47:38;0.75;81.04
67354;SHT30;54238;52.278;21.056;2023-11-21T04:50:07;0.72;81.03
67354;SHT30;54238;52.278;21.056;2023-11-21T04:52:34;0.67;81.16
67354;SHT30;54238;52.278;21.056;2023-11-21T04:55:04;0.68;81.44
67354;SHT30;54238;52.278;21.056;2023-11-21T04:57:38;0.69;81.38
67354;SHT30;54238;52.278;21.056;2023-11-21T05:00:09;0.69;81.40
67354;SHT30;54238;52.278;21.056;2023-11-21T05:02:40;0.71;81.54
67354;SHT30;54238;52.278;21.056;2023-11-21T05:05:13;0.72;81.55
67354;SHT30;54238;52.278;21.056;2023-11-21T05:07:42;0.72;81.23
67354;SHT30;54238;52.278;21.056;2023-11-21T05:10:09;0.69;81.22
67354;SHT30;54238;52.278;21.056;2023-11-21T05:12:41;0.70;81.24
67354;SHT30;54238;52.278;21.056;2023-11-21T05:15:13;0.73;81.31
67354;SHT30;54238;52.278;21.056;2023-11-21T05:17:42;0.74;81.30
67354;SHT30;54238;52.278;21.056;2023-11-21T05:20:11;0.76;81.35
67354;SHT30;54238;52.278;21.056;2023-11-21T05:22:42;0.79;81.40
67354;SHT30;54238;52.278;21.056;2023-11-21T05:25:09;0.80;81.29
67354;SHT30;54238;52.278;21.056;2023-11-21T05:27:45;0.79;81.07
67354;SHT30;54238;52.278;21.056;2023-11-21T05:30:13;0.79;81.09
67354;SHT30;54238;52.278;21.056;2023-11-21T05:32:41;0.80;80.84
67354;SHT30;54238;52.278;21.056;2023-11-21T05:35:12;0.75;80.61
67354;SHT30;54238;52.278;21.056;2023-11-21T05:37:44;0.70;80.58
67354;SHT30;54238;52.278;21.056;2023-11-21T05:40:14;0.68;80.65
67354;SHT30;54238;52.278;21.056;2023-11-21T05:42:43;0.65;80.66
67354;SHT30;54238;52.278;21.056;2023-11-21T05:45:13;0.68;80.93
67354;SHT30;54238;52.278;21.056;2023-11-21T05:47:42;0.69;80.87
67354;SHT30;54238;52.278;21.056;2023-11-21T05:50:14;0.69;80.82
67354;SHT30;54238;52.278;21.056;2023-11-21T05:52:43;0.70;80.99
67354;SHT30;54238;52.278;21.056;2023-11-21T05:55:15;0.74;81.10
67354;SHT30;54238;52.278;21.056;2023-11-21T05:57:43;0.75;80.93
67354;SHT30;54238;52.278;21.056;2023-11-21T06:00:11;0.76;80.99
67354;SHT30;54238;52.278;21.056;2023-11-21T06:02:49;0.77;80.99
67354;SHT30;54238;52.278;21.056;2023-11-21T06:05:21;0.79;80.88
67354;SHT30;54238;52.278;21.056;2023-11-21T06:07:53;0.76;80.67
67354;SHT30;54238;52.278;21.056;2023-11-21T06:10:30;0.74;80.71
67354;SHT30;54238;52.278;21.056;2023-11-21T06:13:00;0.73;80.75
67354;SHT30;54238;52.278;21.056;2023-11-21T06:15:30;0.73;80.84
67354;SHT30;54238;52.278;21.056;2023-11-21T06:17:59;0.74;80.82
67354;SHT30;54238;52.278;21.056;2023-11-21T06:20:31;0.73;80.84
67354;SHT30;54238;52.278;21.056;2023-11-21T06:23:03;0.72;80.80
67354;SHT30;54238;52.278;21.056;2023-11-21T06:25:33;0.74;80.91
67354;SHT30;54238;52.278;21.056;2023-11-21T06:28:03;0.74;80.78
67354;SHT30;54238;52.278;21.056;2023-11-21T06:30:32;0.74;80.81
67354;SHT30;54238;52.278;21.056;2023-11-21T06:33:07;0.75;80.81
67354;SHT30;54238;52.278;21.056;2023-11-21T06:35:39;0.75;80.72
67354;SHT30;54238;52.278;21.056;2023-11-21T06:38:06;0.78;80.78
67354;SHT30;54238;52.278;21.056;2023-11-21T06:40:33;0.78;80.66
67354;SHT30;54238;52.278;21.056;2023-11-21T06:43:02;0.80;80.58
67354;SHT30;54238;52.278;21.056;2023-11-21T06:45:31;0.78;80.49
67354;SHT30;54238;52.278;21.056;2023-11-21T06:48:01;0.78;80.54
67354;SHT30;54238;52.278;21.056;2023-11-21T06:50:28;0.80;80.72
67354;SHT30;54238;52.278;21.056;2023-11-21T06:52:57;0.83;80.67
67354;SHT30;54238;52.278;21.056;2023-11-21T06:55:29;0.85;80.49
67354;SHT30;54238;52.278;21.056;2023-11-21T06:57:59;0.86;80.46
67354;SHT30;54238;52.278;21.056;2023-11-21T07:00:36;0.88;80.50
67354;SHT30;54238;52.278;21.056;2023-11-21T07:03:13;0.90;80.35
67354;SHT30;54238;52.278;21.056;2023-11-21T07:05:40;0.89;80.23
67354;SHT30;54238;52.278;21.056;2023-11-21T07:08:09;0.88;80.20
67354;SHT30;54238;52.278;21.056;2023-11-21T07:10:42;0.88;80.19
67354;SHT30;54238;52.278;21.056;2023-11-21T07:13:14;0.89;80.15
67354;SHT30;54238;52.278;21.056;2023-11-21T07:15:41;0.89;79.98
67354;SHT30;54238;52.278;21.056;2023-11-21T07:18:10;0.86;79.81
67354;SHT30;54238;52.278;21.056;2023-11-21T07:20:42;0.85;79.84
67354;SHT30;54238;52.278;21.056;2023-11-21T07:23:11;0.86;79.70
67354;SHT30;54238;52.278;21.056;2023-11-21T07:25:42;0.86;79.69
67354;SHT30;54238;52.278;21.056;2023-11-21T07:28:09;0.87;79.70
67354;SHT30;54238;52.278;21.056;2023-11-21T07:30:39;0.87;79.72
67354;SHT30;54238;52.278;21.056;2023-11-21T07:33:06;0.89;79.78
67354;SHT30;54238;52.278;21.056;2023-11-21T07:35:34;0.91;79.80
67354;SHT30;54238;52.278;21.056;2023-11-21T07:38:00;0.92;79.72
67354;SHT30;54238;52.278;21.056;2023-11-21T07:40:30;0.92;79.68
67354;SHT30;54238;52.278;21.056;2023-11-21T07:43:01;0.93;79.70
67354;SHT30;54238;52.278;21.056;2023-11-21T07:45:28;0.95;79.69
67354;SHT30;54238;52.278;21.056;2023-11-21T07:47:55;0.98;79.47
67354;SHT30;54238;52.278;21.056;2023-11-21T07:50:25;0.97;79.45
67354;SHT30;54238;52.278;21.056;2023-11-21T07:52:57;0.97;79.33
67354;SHT30;54238;52.278;21.056;2023-11-21T07:55:26;0.97;79.40
67354;SHT30;54238;52.278;21.056;2023-11-21T07:58:01;0.98;79.37
67354;SHT30;54238;52.278;21.056;2023-11-21T08:00:28;1.00;79.35
67354;SHT30;54238;52.278;21.056;2023-11-21T08:03:00;1.05;79.51
67354;SHT30;54238;52.278;21.056;2023-11-21T08:05:32;1.09;79.48
67354;SHT30;54238;52.278;21.056;2023-11-21T08:08:01;1.07;79.23
67354;SHT30;54238;52.278;21.056;2023-11-21T08:10:28;1.05;79.19
67354;SHT30;54238;52.278;21.056;2023-11-21T08:12:56;1.05;79.33
67354;SHT30;54238;52.278;21.056;2023-11-21T08:15:22;1.09;79.56
67354;SHT30;54238;52.278;21.056;2023-11-21T08:17:54;1.15;79.63
67354;SHT30;54238;52.278;21.056;2023-11-21T08:20:26;1.16;79.34
67354;SHT30;54238;52.278;21.056;2023-11-21T08:22:53;1.17;79.46
67354;SHT30;54238;52.278;21.056;2023-11-21T08:25:20;1.22;79.54
67354;SHT30;54238;52.278;21.056;2023-11-21T08:27:46;1.24;79.51
67354;SHT30;54238;52.278;21.056;2023-11-21T08:30:18;1.25;79.40
67354;SHT30;54238;52.278;21.056;2023-11-21T08:32:50;1.25;79.26
67354;SHT30;54238;52.278;21.056;2023-11-21T08:35:18;1.22;79.15
67354;SHT30;54238;52.278;21.056;2023-11-21T08:37:45;1.19;79.18
67354;SHT30;54238;52.278;21.056;2023-11-21T08:40:12;1.18;79.35
67354;SHT30;54238;52.278;21.056;2023-11-21T08:42:43;1.16;79.53
67354;SHT30;54238;52.278;21.056;2023-11-21T08:45:12;1.20;79.72
67354;SHT30;54238;52.278;21.056;2023-11-21T08:47:40;1.22;79.70
67354;SHT30;54238;52.278;21.056;2023-11-21T08:50:12;1.24;79.70
67354;SHT30;54238;52.278;21.056;2023-11-21T08:52:44;1.27;79.77
67354;SHT30;54238;52.278;21.056;2023-11-21T08:55:16;1.29;79.60
67354;SHT30;54238;52.278;21.056;2023-11-21T08:57:43;1.31;79.47
67354;SHT30;54238;52.278;21.056;2023-11-21T09:00:14;1.31;79.29
67354;SHT30;54238;52.278;21.056;2023-11-21T09:02:43;1.34;79.43
67354;SHT30;54238;52.278;21.056;2023-11-21T09:05:16;1.38;79.37
67354;SHT30;54238;52.278;21.056;2023-11-21T09:07:47;1.40;79.24
67354;SHT30;54238;52.278;21.056;2023-11-21T09:10:16;1.42;79.29
67354;SHT30;54238;52.278;21.056;2023-11-21T09:12:47;1.47;79.31
67354;SHT30;54238;52.278;21.056;2023-11-21T09:15:14;1.52;79.30
67354;SHT30;54238;52.278;21.056;2023-11-21T09:17:41;1.55;79.33
67354;SHT30;54238;52.278;21.056;2023-11-21T09:20:11;1.59;79.32
67354;SHT30;54238;52.278;21.056;2023-11-21T09:22:41;1.64;79.13
67354;SHT30;54238;52.278;21.056;2023-11-21T09:25:13;1.67;78.96
67354;SHT30;54238;52.278;21.056;2023-11-21T09:27:40;1.70;78.89
67354;SHT30;54238;52.278;21.056;2023-11-21T09:30:14;1.75;78.82
67354;SHT30;54238;52.278;21.056;2023-11-21T09:32:43;1.80;78.50
67354;SHT30;54238;52.278;21.056;2023-11-21T09:35:15;1.85;78.25
67354;SHT30;54238;52.278;21.056;2023-11-21T09:37:43;1.88;77.95
67354;SHT30;54238;52.278;21.056;2023-11-21T09:40:14;1.91;77.84
67354;SHT30;54238;52.278;21.056;2023-11-21T09:42:50;1.94;77.63
67354;SHT30;54238;52.278;21.056;2023-11-21T09:45:31;1.94;77.40
67354;SHT30;54238;52.278;21.056;2023-11-21T09:48:05;1.92;77.31
67354;SHT30;54238;52.278;21.056;2023-11-21T09:50:33;1.90;77.03
67354;SHT30;54238;52.278;21.056;2023-11-21T09:53:13;1.91;77.00
67354;SHT30;54238;52.278;21.056;2023-11-21T09:55:56;1.94;77.00
67354;SHT30;54238;52.278;21.056;2023-11-21T09:58:23;1.95;77.13
67354;SHT30;54238;52.278;21.056;2023-11-21T10:00:53;1.99;77.19
67354;SHT30;54238;52.278;21.056;2023-11-21T10:03:24;2.01;77.10
67354;SHT30;54238;52.278;21.056;2023-11-21T10:05:52;2.05;77.10
67354;SHT30;54238;52.278;21.056;2023-11-21T10:08:27;2.11;76.91
67354;SHT30;54238;52.278;21.056;2023-11-21T10:10:57;2.10;76.55
67354;SHT30;54238;52.278;21.056;2023-11-21T10:13:27;2.03;76.41
67354;SHT30;54238;52.278;21.056;2023-11-21T10:16:00;2.02;76.49
67354;SHT30;54238;52.278;21.056;2023-11-21T10:18:36;2.01;76.39
67354;SHT30;54238;52.278;21.056;2023-11-21T10:21:08;2.00;76.56
67354;SHT30;54238;52.278;21.056;2023-11-21T10:23:38;1.99;76.43
67354;SHT30;54238;52.278;21.056;2023-11-21T10:26:11;1.97;76.40
67354;SHT30;54238;52.278;21.056;2023-11-21T10:29:00;1.94;76.30
67354;SHT30;54238;52.278;21.056;2023-11-21T10:31:37;1.90;76.20
67354;SHT30;54238;52.278;21.056;2023-11-21T10:34:14;1.85;76.10
67354;SHT30;54238;52.278;21.056;2023-11-21T10:36:50;1.80;76.15
67354;SHT30;54238;52.278;21.056;2023-11-21T10:39:22;1.78;76.17
67354;SHT30;54238;52.278;21.056;2023-11-21T10:41:51;1.82;76.43
67354;SHT30;54238;52.278;21.056;2023-11-21T10:44:23;1.84;76.34
67354;SHT30;54238;52.278;21.056;2023-11-21T10:46:51;1.81;76.19
67354;SHT30;54238;52.278;21.056;2023-11-21T10:49:27;1.81;76.34
67354;SHT30;54238;52.278;21.056;2023-11-21T10:51:54;1.83;76.27
67354;SHT30;54238;52.278;21.056;2023-11-21T10:54:24;1.86;76.38
67354;SHT30;54238;52.278;21.056;2023-11-21T10:57:01;1.89;76.27
67354;SHT30;54238;52.278;21.056;2023-11-21T10:59:34;1.92;76.35
67354;SHT30;54238;52.278;21.056;2023-11-21T11:02:25;1.93;76.17
67354;SHT30;54238;52.278;21.056;2023-11-21T11:04:54;1.88;75.96
67354;SHT30;54238;52.278;21.056;2023-11-21T11:07:26;1.86;76.33
67354;SHT30;54238;52.278;21.056;2023-11-21T11:09:54;1.85;76.37
67354;SHT30;54238;52.278;21.056;2023-11-21T11:12:24;1.83;76.37
67354;SHT30;54238;52.278;21.056;2023-11-21T11:14:51;1.84;76.56
67354;SHT30;54238;52.278;21.056;2023-11-21T11:17:23;1.85;76.55
67354;SHT30;54238;52.278;21.056;2023-11-21T11:19:50;1.84;76.59
67354;SHT30;54238;52.278;21.056;2023-11-21T11:28:06;1.81;76.57
67354;SHT30;54238;52.278;21.056;2023-11-21T11:34:06;1.66;76.48
67354;SHT30;54238;52.278;21.056;2023-11-21T11:37:00;1.60;76.25
67354;SHT30;54238;52.278;21.056;2023-11-21T11:42:12;1.52;76.69
67354;SHT30;54238;52.278;21.056;2023-11-21T11:50:12;1.56;77.05
67354;SHT30;54238;52.278;21.056;2023-11-21T11:52:49;1.56;77.13
67354;SHT30;54238;52.278;21.056;2023-11-21T11:55:19;1.57;76.94
67354;SHT30;54238;52.278;21.056;2023-11-21T11:57:53;1.56;76.58
67354;SHT30;54238;52.278;21.056;2023-11-21T12:03:02;1.52;76.76
67354;SHT30;54238;52.278;21.056;2023-11-21T12:05:31;1.53;76.75
67354;SHT30;54238;52.278;21.056;2023-11-21T12:08:06;1.54;76.76
67354;SHT30;54238;52.278;21.056;2023-11-21T12:10:42;1.57;76.74
67354;SHT30;54238;52.278;21.056;2023-11-21T12:13:11;1.58;76.62
67354;SHT30;54238;52.278;21.056;2023-11-21T12:15:41;1.60;76.61
67354;SHT30;54238;52.278;21.056;2023-11-21T12:18:11;1.62;76.44
67354;SHT30;54238;52.278;21.056;2023-11-21T12:20:41;1.65;76.45
67354;SHT30;54238;52.278;21.056;2023-11-21T12:23:09;1.66;76.60
67354;SHT30;54238;52.278;21.056;2023-11-21T12:25:43;1.70;76.59
67354;SHT30;54238;52.278;21.056;2023-11-21T12:28:10;1.72;76.41
67354;SHT30;54238;52.278;21.056;2023-11-21T12:30:46;1.74;76.36
67354;SHT30;54238;52.278;21.056;2023-11-21T12:33:18;1.72;76.28
67354;SHT30;54238;52.278;21.056;2023-11-21T12:35:50;1.72;76.29
67354;SHT30;54238;52.278;21.056;2023-11-21T12:38:17;1.71;76.26
67354;SHT30;54238;52.278;21.056;2023-11-21T12:40:48;1.71;76.37
67354;SHT30;54238;52.278;21.056;2023-11-21T12:43:15;1.73;76.33
67354;SHT30;54238;52.278;21.056;2023-11-21T12:45:50;1.75;76.24
67354;SHT30;54238;52.278;21.056;2023-11-21T12:48:31;1.76;76.37
67354;SHT30;54238;52.278;21.056;2023-11-21T12:51:04;1.76;76.40
67354;SHT30;54238;52.278;21.056;2023-11-21T12:53:37;1.78;76.39
67354;SHT30;54238;52.278;21.056;2023-11-21T12:58:37;1.82;76.38
67354;SHT30;54238;52.278;21.056;2023-11-21T13:01:06;1.80;76.36
67354;SHT30;54238;52.278;21.056;2023-11-21T13:03:40;1.77;76.25
67354;SHT30;54238;52.278;21.056;2023-11-21T13:06:11;1.72;76.05
67354;SHT30;54238;52.278;21.056;2023-11-21T13:08:43;1.69;76.17
67354;SHT30;54238;52.278;21.056;2023-11-21T13:11:13;1.70;76.28
67354;SHT30;54238;52.278;21.056;2023-11-21T13:13:41;1.72;76.30
67354;SHT30;54238;52.278;21.056;2023-11-21T13:16:12;1.68;76.23
67354;SHT30;54238;52.278;21.056;2023-11-21T13:18:42;1.66;76.44
67354;SHT30;54238;52.278;21.056;2023-11-21T13:21:12;1.64;76.43
67354;SHT30;54238;52.278;21.056;2023-11-21T13:23:46;1.60;76.43
67354;SHT30;54238;52.278;21.056;2023-11-21T13:26:22;1.53;76.31
67354;SHT30;54238;52.278;21.056;2023-11-21T13:28:52;1.45;76.37
67354;SHT30;54238;52.278;21.056;2023-11-21T13:31:25;1.40;76.66
67354;SHT30;54238;52.278;21.056;2023-11-21T13:33:59;1.40;77.03
67354;SHT30;54238;52.278;21.056;2023-11-21T13:36:32;1.42;77.19
67354;SHT30;54238;52.278;21.056;2023-11-21T13:39:01;1.37;76.76
67354;SHT30;54238;52.278;21.056;2023-11-21T13:41:34;1.36;76.81
67354;SHT30;54238;52.278;21.056;2023-11-21T13:44:05;1.38;76.74
67354;SHT30;54238;52.278;21.056;2023-11-21T13:46:53;1.38;76.68
67354;SHT30;54238;52.278;21.056;2023-11-21T13:49:24;1.35;76.68
67354;SHT30;54238;52.278;21.056;2023-11-21T13:51:54;1.33;76.62
67354;SHT30;54238;52.278;21.056;2023-11-21T13:54:24;1.31;76.70
67354;SHT30;54238;52.278;21.056;2023-11-21T13:56:51;1.31;76.75
67354;SHT30;54238;52.278;21.056;2023-11-21T13:59:23;1.30;76.77
67354;SHT30;54238;52.278;21.056;2023-11-21T14:01:54;1.30;76.90
67354;SHT30;54238;52.278;21.056;2023-11-21T14:04:39;1.31;76.87
67354;SHT30;54238;52.278;21.056;2023-11-21T14:07:21;1.29;76.88
67354;SHT30;54238;52.278;21.056;2023-11-21T14:10:04;1.28;77.08
67354;SHT30;54238;52.278;21.056;2023-11-21T14:12:39;1.28;77.18
67354;SHT30;54238;52.278;21.056;2023-11-21T14:15:09;1.27;77.10
67354;SHT30;54238;52.278;21.056;2023-11-21T14:17:43;1.27;77.20
67354;SHT30;54238;52.278;21.056;2023-11-21T14:20:12;1.24;77.12
67354;SHT30;54238;52.278;21.056;2023-11-21T14:22:44;1.17;76.93
67354;SHT30;54238;52.278;21.056;2023-11-21T14:25:12;1.17;77.10
67354;SHT30;54238;52.278;21.056;2023-11-21T14:27:40;1.18;77.16
67354;SHT30;54238;52.278;21.056;2023-11-21T14:30:10;1.17;77.24
67354;SHT30;54238;52.278;21.056;2023-11-21T14:32:42;1.15;77.24
67354;SHT30;54238;52.278;21.056;2023-11-21T14:35:11;1.13;77.26
67354;SHT30;54238;52.278;21.056;2023-11-21T14:37:38;1.12;77.24
67354;SHT30;54238;52.278;21.056;2023-11-21T14:40:06;1.09;77.20
67354;SHT30;54238;52.278;21.056;2023-11-21T14:42:38;1.08;77.15
67354;SHT30;54238;52.278;21.056;2023-11-21T14:45:08;1.03;77.17
67354;SHT30;54238;52.278;21.056;2023-11-21T14:47:38;1.01;77.42
67354;SHT30;54238;52.278;21.056;2023-11-21T14:50:15;1.03;77.38
67354;SHT30;54238;52.278;21.056;2023-11-21T14:53:08;1.03;77.20
67354;SHT30;54238;52.278;21.056;2023-11-21T14:55:39;0.99;77.21
67354;SHT30;54238;52.278;21.056;2023-11-21T14:58:18;0.99;77.29
67354;SHT30;54238;52.278;21.056;2023-11-21T15:00:53;0.98;77.24
67354;SHT30;54238;52.278;21.056;2023-11-21T15:03:25;0.97;77.22
67354;SHT30;54238;52.278;21.056;2023-11-21T15:06:02;0.96;77.31
67354;SHT30;54238;52.278;21.056;2023-11-21T15:08:53;0.95;77.31
67354;SHT30;54238;52.278;21.056;2023-11-21T15:11:37;0.93;77.30
67354;SHT30;54238;52.278;21.056;2023-11-21T15:14:05;0.91;77.40
67354;SHT30;54238;52.278;21.056;2023-11-21T15:16:34;0.90;77.37
67354;SHT30;54238;52.278;21.056;2023-11-21T15:19:07;0.89;77.20
67354;SHT30;54238;52.278;21.056;2023-11-21T15:21:39;0.86;77.08
67354;SHT30;54238;52.278;21.056;2023-11-21T15:24:08;0.85;77.02
67354;SHT30;54238;52.278;21.056;2023-11-21T15:26:38;0.84;76.99
67354;SHT30;54238;52.278;21.056;2023-11-21T15:29:07;0.81;76.97
67354;SHT30;54238;52.278;21.056;2023-11-21T15:31:39;0.82;77.02
67354;SHT30;54238;52.278;21.056;2023-11-21T15:34:10;0.80;76.98
67354;SHT30;54238;52.278;21.056;2023-11-21T15:36:43;0.78;76.88
67354;SHT30;54238;52.278;21.056;2023-11-21T15:39:10;0.75;76.80
67354;SHT30;54238;52.278;21.056;2023-11-21T15:41:40;0.76;76.90
67354;SHT30;54238;52.278;21.056;2023-11-21T15:44:08;0.76;76.90
67354;SHT30;54238;52.278;21.056;2023-11-21T15:46:40;0.77;76.86
67354;SHT30;54238;52.278;21.056;2023-11-21T15:49:08;0.77;76.87
67354;SHT30;54238;52.278;21.056;2023-11-21T15:51:43;0.78;76.82
67354;SHT30;54238;52.278;21.056;2023-11-21T15:54:19;0.75;76.66
67354;SHT30;54238;52.278;21.056;2023-11-21T15:56:51;0.74;76.73
67354;SHT30;54238;52.278;21.056;2023-11-21T15:59:24;0.71;76.82
67354;SHT30;54238;52.278;21.056;2023-11-21T16:01:58;0.72;76.93
67354;SHT30;54238;52.278;21.056;2023-11-21T16:04:33;0.74;77.01
67354;SHT30;54238;52.278;21.056;2023-11-21T16:07:08;0.74;77.18
67354;SHT30;54238;52.278;21.056;2023-11-21T16:09:38;0.77;77.35
67354;SHT30;54238;52.278;21.056;2023-11-21T16:12:13;0.82;77.34
67354;SHT30;54238;52.278;21.056;2023-11-21T16:14:47;0.81;77.25